Aérodrome :
LOGIN :

S'inscrire | Disclaimer

   EN    FR    IT 

 










Légende :    VFR   VFR Marginal   IFR   IFR Intensif   IFR Très Intensif
Visi : 
Plafond : 
>= 8 km
>= 3000ft
5 à 8 km
1000 à 3000 ft
1500m à 5 km
500 à 1000 ft
800 à 1500m
200 à 500 ft
< 800m
< 200 ft
Symboles :   Orages  Brouillard  Fortes neiges  Fortes précipitations  Vent > 20 kt
SIGMETs :   Divers  Orages  Givrage  Turbulence  Onde Orograph.  Cendres Volcan.






- Altitude de l'aérodrome : 1568 ft


ETSB - Büchel AB

DERNIER METAR :
  • 301220Z AUTO 24011KT 8000 // ////// 12/11 Q1021 ///

METARs EXPIRÉS :
  • 301120Z AUTO 24012KT 2000 // ////// 11/11 Q1021 ///
  • 301102Z 24011KT 9999 FEW002 BKN005 11/11 Q1021 YLO FCST CANCEL
  • 301036Z 24011KT 3500 -DZ BR SCT002 BKN004 11/11 Q1021 YLO GRN TEMPO YLO
  • 301020Z 24010KT 4000 -DZ BR SCT003 BKN005 11/11 Q1021 YLO GRN TEMPO YLO
  • 301002Z 24011KT 4000 -DZ BR FEW003 BKN005 11/10 Q1021 YLO GRN TEMPO YLO

TAF TAF ETSB
Valide du 30 à 09h jusqu'au 30 à 18h UTC


300817Z 3009/3018 24010G20KT 9999 NSW SCT005 BKN010
TEMPO 3009/3012 24012G22KT 3000 DZRA BKN004 BKN008 BY ETGL



MET'MAP, la Météo Aéronautique d'un coup d'oeil ! - Copyright ORBIFLY Décembre 2007 - Disclaimer

ORBIFLY MET'MAP TEAM :

Programmation & Développement : Alexandra Zaïnal
Sur une idée originale de : Baudouin d'Aumeries
Assistance à la programmation : Marc-Olivier Méhu
Soutien technique & logistique : Manuel Goepfert

Contact : metmap@orbifly.com




SOURCES & CREDITS :

   NOAA